大阪空港の過去48時間の天気

大阪空港 (Osaka/Intl)

現在時刻: 8/13 15:16 JST (8/13 06:16 UTC) 以下の時間は現地時間です。

過去48時間のMETAR気象情報
時間 風向 風速(m/s) 視程 気温(℃) 湿度(%) 気圧(hPa) 天気現象
13 15:00 南南西 3 10km以上 33 63 1009
13 14:00 3 10km以上 33 63 1010
13 13:21 南西 3 10km以上 34 63 1010
13 13:00 南南西 3 10km以上 32 67 1010
13 12:08 南西 3 10km以上 34 63 1011
13 12:00 南南西 4 10km以上 32 67 1011
13 11:00 3 10km以上 32 67 1012
13 10:17 南西 4 10km以上 34 63 1012
13 10:00 南西 4 10km以上 32 71 1012
13 09:00 南西 5 10km以上 32 67 1012
13 08:38 南西 4 10km以上 32 71 1012
13 08:00 不定 2 10km以上 30 75 1013
13 07:00 北北西 2 10km以上 28 84 1013
13 06:00 不定 1 10km以上 28 84 1013 周辺でしゅう雨
13 05:00 不定 1 10km以上 27 89 1012
RJOO 130600Z 21006KT 130V270 9999 FEW025 33/25 Q1009 RMK 1CU025 A2982
RJOO 130500Z VRB06KT 9999 FEW025 SCT035 BKN080 33/25 Q1010 RMK 1CU025 3CU035 5AC080 A2984
RJOO 130421Z 22006KT 150V280 9999 FEW025 SCT035 BKN080 34/26 Q1010 RMK 1CU025 3CU035 5AC080 A2984
RJOO 130400Z 21006KT 140V250 9999 FEW025 SCT035 BKN070 32/25 Q1010 RMK 1CU025 3CU035 5AC070 A2985
RJOO 130308Z 22006KT 150V260 9999 FEW025 SCT040 BKN070 34/26 Q1011 RMK 1CU025 3CU040 5AC070 A2986
RJOO 130300Z 20007KT 160V250 9999 FEW025 SCT040 BKN070 32/25 Q1011 RMK 1CU025 3CU040 5AC070 A2986
RJOO 130200Z VRB05KT 9999 FEW025 SCT035 BKN080 32/25 Q1012 RMK 1CU025 3CU035 5AC080 A2989
RJOO 130117Z 23008KT 180V300 9999 FEW020 SCT035 BKN080 34/26 Q1012 RMK 1CU020 3CU035 5AC080 A2990
RJOO 130100Z 23008KT 190V270 9999 FEW020 SCT040 BKN080 32/26 Q1012 RMK 1CU020 3CU040 5AC080 A2990
RJOO 130000Z 23009KT 190V260 9999 FEW020 SCT080 32/25 Q1012 RMK 1CU020 4AC080 A2990
RJOO 122338Z 22008KT 160V280 9999 FEW020 SCT035 32/26 Q1012 RMK 1CU020 3CU035 A2991
RJOO 122300Z VRB03KT 9999 FEW020 SCT035 BKN060 30/25 Q1013 RMK 1CU020 3CU035 5SC060 A2992
RJOO 122200Z 33003KT 9999 FEW020 BKN060 28/25 Q1013 RMK 1CU020 6SC060 A2992
RJOO 122100Z VRB02KT 9999 VCSH FEW020 BKN050 BKN/// 28/25 Q1013 RMK 1CU020 5SC050 A2992
RJOO 122000Z VRB02KT 9999 FEW020 BKN035 BKN070 27/25 Q1012 RMK 1CU020 5CU035 6AC070 A2991